Mingo, Ohio
Current Conditions -  °F | °C
As of 9:10 AM on Wednesday 26 Nov 2014 (Local Time) from KEDJ Reporting Station
Overcast Overcast  
Wind Chill: 20°   Ceiling: 1400
Heat Index: 27°   Visibility: 10mi
Dew Point: 23°   Wind: 6mph
Humidity: 86%   Direction: 40°NE
Pressure: 30.13"   Gusts: NA
Location:  40.21°N, 83.64°W
Report Text: KEDJ 261410Z AUTO 04005KT 10SM OVC014 M03/M05 A3013 RMK AO1
Loading
Personal Weather Stations






























Interactive Weather Map New forecast layout! Learn more

10-Day Weather Forecast

Advertisements
Track Severe Weather on mobile